This is the latest recevied weather packets stored in our database for station/object SQ4LOL-13. If no packets are shown the sender has not sent any weather packets the latest 10 day(s).
| Time | Temp. | Humidity | Pressure | Rain* | Wind** | Luminosity | Snow |
|---|---|---|---|---|---|---|---|
| 1778172510 | 16.11° C | 74% | 994.1 hPa | 0 mm | - | - | - |
| 1778170101 | 17.78° C | 72% | 993.5 hPa | 0.25 mm | - | - | - |
| 1778167713 | 18.33° C | 78% | 993.2 hPa | 0.25 mm | - | - | - |
| 1778166489 | 17.78° C | 80% | 992.9 hPa | 0.25 mm | - | - | - |
| 1778161072 | 18.33° C | 85% | 992.5 hPa | 1.02 mm | - | - | - |
| 1778156857 | 18.33° C | 85% | 992.3 hPa | 2.79 mm | - | - | - |
| 1778154449 | 20° C | 74% | 992.2 hPa | 3.3 mm | - | - | - |
| 1778150857 | 23.89° C | 50% | 991.1 hPa | 0 mm | - | - | - |
| 1778149052 | 23.33° C | 53% | 991.2 hPa | 0 mm | - | - | - |
| 1778137594 | 20° C | 62% | 989.8 hPa | 0 mm | - | - | - |
| 1778137012 | 19.44° C | 64% | 989.9 hPa | 0 mm | - | - | - |
| 1778136390 | 18.89° C | 66% | 989.9 hPa | 0 mm | - | - | - |
| 1778135185 | 18.33° C | 67% | 989.8 hPa | 0 mm | - | - | - |
| 1778123145 | 15° C | 72% | 988.8 hPa | 0 mm | - | - | - |
| 1778121340 | 15° C | 73% | 989.1 hPa | 0 mm | - | - | - |
| 1778119534 | 14.44° C | 76% | 988.9 hPa | 0 mm | - | - | - |
| 1778118330 | 13.89° C | 78% | 988.8 hPa | 0 mm | - | - | - |
| 1778117126 | 13.89° C | 78% | 988.9 hPa | 0 mm | - | - | - |
| 1778111105 | 14.44° C | 76% | 989.2 hPa | 0 mm | - | - | - |
| 1778103300 | 15.56° C | 69% | 989.3 hPa | 0 mm | - | - | - |
| 1778100872 | 16.11° C | 66% | 989.5 hPa | 0 mm | - | - | - |
| 1778096095 | 19.44° C | 57% | 989.2 hPa | 0 mm | - | - | - |
| 1778095453 | 20° C | 55% | 989.2 hPa | 0 mm | - | - | - |
| 1778091239 | 22.78° C | 48% | 988.2 hPa | 0 mm | - | - | - |
| 1778089453 | 23.89° C | 45% | 988.1 hPa | 0 mm | - | - | - |
* Rain latest hour (hover to see other rain measurements)
** Current wind speed in m/s (hover to see current wind gust speed)